createdAt,value
2018-12-17T00:01:05.855Z,1000.57
2018-12-17T00:02:15.921Z,1000.62
2018-12-17T00:03:25.990Z,1000.62
2018-12-17T00:04:35.784Z,1000.68
2018-12-17T00:05:45.838Z,1000.69
2018-12-17T00:06:55.904Z,1000.7
2018-12-17T00:08:05.968Z,1000.66
2018-12-17T00:09:16.107Z,1000.67
2018-12-17T00:10:26.152Z,1000.61
2018-12-17T00:11:37.226Z,1000.62
2018-12-17T00:12:47.283Z,1000.59
2018-12-17T00:13:57.337Z,1000.64
2018-12-17T00:15:07.401Z,1000.63
2018-12-17T00:16:17.486Z,1000.64
2018-12-17T00:17:27.541Z,1000.64
2018-12-17T00:18:37.603Z,1000.64
2018-12-17T00:19:47.425Z,1000.61
2018-12-17T00:20:57.477Z,1000.62
2018-12-17T00:22:07.254Z,1000.61
2018-12-17T00:23:17.286Z,1000.63
2018-12-17T00:24:27.398Z,1000.65
2018-12-17T00:25:37.443Z,1000.64
2018-12-17T00:26:47.524Z,1000.67
2018-12-17T00:27:57.592Z,1000.69
2018-12-17T00:29:13.553Z,1000.69
2018-12-17T00:30:23.704Z,1000.68
2018-12-17T00:31:33.752Z,1000.68
2018-12-17T00:32:43.793Z,1000.7
2018-12-17T00:33:53.862Z,1000.72
2018-12-17T00:35:04.227Z,1000.75
2018-12-17T00:36:14.273Z,1000.8
2018-12-17T00:37:24.338Z,1000.77
2018-12-17T00:38:34.145Z,1000.74
2018-12-17T00:39:43.984Z,1000.74
2018-12-17T00:40:54.041Z,1000.8
2018-12-17T00:42:04.249Z,1000.79
2018-12-17T00:43:14.300Z,1000.82
2018-12-17T00:44:24.356Z,1000.88
2018-12-17T00:45:34.437Z,1000.84
2018-12-17T00:46:44.477Z,1000.85
2018-12-17T00:47:54.577Z,1000.87
2018-12-17T00:49:04.609Z,1000.83
2018-12-17T00:50:14.676Z,1000.8
2018-12-17T00:51:24.725Z,1000.82
2018-12-17T00:52:34.773Z,1000.83
2018-12-17T00:53:44.827Z,1000.85
2018-12-17T00:54:54.870Z,1000.85
2018-12-17T00:56:04.928Z,1000.83
2018-12-17T00:57:14.962Z,1000.84
2018-12-17T00:58:25.017Z,1000.9
2018-12-17T00:59:34.804Z,1000.89
2018-12-17T01:00:44.850Z,1000.86
2018-12-17T01:01:54.899Z,1000.88
2018-12-17T01:03:04.980Z,1000.88
2018-12-17T01:04:14.891Z,1000.89
2018-12-17T01:05:24.674Z,1000.91
2018-12-17T01:06:34.740Z,1000.9
2018-12-17T01:07:44.792Z,1000.91
2018-12-17T01:08:54.849Z,1000.91
2018-12-17T01:10:04.888Z,1000.91
2018-12-17T01:11:14.929Z,1000.97
2018-12-17T01:12:24.980Z,1000.95
2018-12-17T01:13:35.030Z,1000.98
2018-12-17T01:14:45.081Z,1000.96
2018-12-17T01:15:55.127Z,1000.95
2018-12-17T01:17:04.958Z,1000.99
2018-12-17T01:18:15.002Z,1000.98
2018-12-17T01:19:25.067Z,1000.96
2018-12-17T01:20:34.622Z,1000.97
2018-12-17T01:21:44.415Z,1000.96
2018-12-17T01:22:54.470Z,1000.95
2018-12-17T01:24:04.562Z,1000.94
2018-12-17T01:25:14.609Z,1000.94
2018-12-17T01:26:24.652Z,1000.95
2018-12-17T01:27:34.704Z,1000.95
2018-12-17T01:28:44.750Z,1001.03
2018-12-17T01:29:54.783Z,1001.06
2018-12-17T01:31:05.426Z,1001.08
2018-12-17T01:32:14.778Z,1001.08
2018-12-17T01:33:24.827Z,1001.1
2018-12-17T01:34:34.885Z,1001.09
2018-12-17T01:35:44.723Z,1001.09
2018-12-17T01:36:54.513Z,1001.04
2018-12-17T01:38:04.367Z,1001
2018-12-17T01:39:14.403Z,1001.04
2018-12-17T01:40:24.516Z,1001.02
2018-12-17T01:41:34.320Z,1001
2018-12-17T01:42:44.356Z,1001.02
2018-12-17T01:43:54.151Z,1001.03
2018-12-17T01:45:03.964Z,1001.06
2018-12-17T01:46:13.863Z,1001.06
2018-12-17T01:47:23.980Z,1001.06
2018-12-17T01:48:33.759Z,1001.07
2018-12-17T01:49:43.801Z,1001.05
2018-12-17T01:50:53.598Z,1001.03
2018-12-17T01:52:03.400Z,1001.05
2018-12-17T01:53:13.207Z,1001.04
2018-12-17T01:54:23.250Z,1001.05
2018-12-17T01:55:33.303Z,1001.02
2018-12-17T01:56:43.354Z,1000.97
2018-12-17T01:57:53.484Z,1000.95
2018-12-17T01:59:03.288Z,1000.94
2018-12-17T02:00:13.333Z,1000.95
2018-12-17T02:01:23.385Z,1000.99
2018-12-17T02:02:33.188Z,1000.93
2018-12-17T02:03:43.491Z,1000.99
2018-12-17T02:04:53.577Z,1000.95
2018-12-17T02:06:03.630Z,1000.97
2018-12-17T02:07:15.225Z,1000.89
2018-12-17T02:08:25.130Z,1000.9
2018-12-17T02:09:34.943Z,1000.9
2018-12-17T02:10:44.736Z,1000.87
2018-12-17T02:11:54.875Z,1000.88
2018-12-17T02:13:04.950Z,1000.87
2018-12-17T02:14:15.008Z,1000.88
2018-12-17T02:15:24.801Z,1000.94
2018-12-17T02:16:34.851Z,1000.97
2018-12-17T02:17:44.639Z,1000.98
2018-12-17T02:18:54.414Z,1000.98
2018-12-17T02:20:04.452Z,1000.97
2018-12-17T02:21:14.554Z,1000.97
2018-12-17T02:22:24.629Z,1000.98
2018-12-17T02:23:34.672Z,1000.99
2018-12-17T02:24:44.728Z,1001.04
2018-12-17T02:25:54.265Z,1001.1
2018-12-17T02:27:04.045Z,1001.07
2018-12-17T02:28:13.835Z,1001.04
2018-12-17T02:29:23.880Z,1001.03
2018-12-17T02:30:33.926Z,1001.02
2018-12-17T02:31:43.726Z,1000.99
2018-12-17T02:32:53.539Z,1000.99
2018-12-17T02:34:03.614Z,1000.96
2018-12-17T02:35:13.672Z,1000.98
2018-12-17T02:36:25.357Z,1001.04
2018-12-17T02:37:35.422Z,1001.05
2018-12-17T02:38:45.464Z,1001.02
2018-12-17T02:39:55.535Z,1001.07
2018-12-17T02:41:05.324Z,1001.05
2018-12-17T02:42:15.375Z,1000.99
2018-12-17T02:43:25.422Z,1000.96
2018-12-17T02:44:35.200Z,1000.95
2018-12-17T02:45:45.254Z,1000.96
2018-12-17T02:46:55.070Z,1000.96
2018-12-17T02:48:05.133Z,1000.9
2018-12-17T02:49:15.255Z,1000.89
2018-12-17T02:50:25.065Z,1000.94
2018-12-17T02:51:35.173Z,1001
2018-12-17T02:52:45.215Z,1001.03
2018-12-17T02:53:55.008Z,1000.99
2018-12-17T02:55:05.146Z,1000.95
2018-12-17T02:56:15.205Z,1000.95
2018-12-17T02:57:25.244Z,1000.91
2018-12-17T02:58:35.220Z,1000.88
2018-12-17T02:59:51.729Z,1000.91
2018-12-17T03:01:01.778Z,1000.92
2018-12-17T03:02:11.833Z,1000.96
2018-12-17T03:03:21.995Z,1000.94
2018-12-17T03:34:56.269Z,1001.1
2018-12-17T03:36:06.061Z,1001.04
2018-12-17T03:37:16.100Z,1000.95
2018-12-17T03:38:26.154Z,1001.01
2018-12-17T03:39:36.189Z,1001.08
2018-12-17T03:40:45.820Z,1001.12
2018-12-17T03:41:56.043Z,1001.19
2018-12-17T03:43:06.448Z,1001.14
2018-12-17T03:44:16.503Z,1001.18
2018-12-17T03:45:26.562Z,1001.16
2018-12-17T03:46:36.185Z,1001.09
2018-12-17T03:47:46.238Z,1001.12
2018-12-17T03:48:56.058Z,1001.12
2018-12-17T03:50:08.581Z,1001.09
2018-12-17T03:51:18.381Z,1001.04
2018-12-17T03:52:28.171Z,1001
2018-12-17T03:53:37.955Z,1001.01
2018-12-17T03:54:47.746Z,1000.96
2018-12-17T03:55:57.542Z,1000.95
2018-12-17T03:57:07.091Z,1001
2018-12-17T03:58:17.162Z,1001.02
2018-12-17T03:59:26.953Z,1001.04
2018-12-17T04:00:36.524Z,1001.07
2018-12-17T04:01:46.578Z,1001.05
2018-12-17T04:02:56.628Z,1001.1
2018-12-17T04:04:06.749Z,1001.19
2018-12-17T04:05:16.811Z,1001.21
2018-12-17T04:06:26.868Z,1001.18
2018-12-17T04:07:36.915Z,1001.15
2018-12-17T04:08:46.999Z,1001.09
2018-12-17T04:09:57.092Z,1001.12
2018-12-17T04:11:07.177Z,1001.19
2018-12-17T04:12:16.981Z,1001.29
2018-12-17T04:13:27.027Z,1001.22
2018-12-17T04:14:37.084Z,1001.2
2018-12-17T04:15:46.919Z,1001.22
2018-12-17T04:16:56.977Z,1001.21
2018-12-17T04:18:07.039Z,1001.24
2018-12-17T04:19:17.088Z,1001.26
2018-12-17T04:20:27.141Z,1001.31
2018-12-17T04:21:37.238Z,1001.31
2018-12-17T04:22:47.284Z,1001.36
2018-12-17T04:23:57.343Z,1001.42
2018-12-17T04:25:07.148Z,1001.39
2018-12-17T04:26:17.201Z,1001.38
2018-12-17T04:27:27.000Z,1001.44
2018-12-17T04:28:37.131Z,1001.39
2018-12-17T04:29:46.926Z,1001.43
2018-12-17T04:30:56.979Z,1001.45
2018-12-17T04:32:06.516Z,1001.46
2018-12-17T04:33:16.308Z,1001.46
2018-12-17T04:34:26.375Z,1001.47
2018-12-17T04:35:36.441Z,1001.46
2018-12-17T04:36:46.495Z,1001.43
2018-12-17T04:37:56.292Z,1001.45
2018-12-17T04:39:06.174Z,1001.46
2018-12-17T04:40:16.240Z,1001.4
2018-12-17T04:41:26.302Z,1001.48
2018-12-17T04:42:36.103Z,1001.5
2018-12-17T04:43:45.909Z,1001.52
2018-12-17T04:44:55.753Z,1001.52
2018-12-17T04:46:07.186Z,1001.55
2018-12-17T04:47:17.075Z,1001.48
2018-12-17T04:48:27.141Z,1001.45
2018-12-17T04:49:37.176Z,1001.44
2018-12-17T04:50:46.472Z,1001.4
2018-12-17T04:51:56.247Z,1001.44
2018-12-17T04:53:06.636Z,1001.56
2018-12-17T04:54:16.705Z,1001.6
2018-12-17T04:55:26.751Z,1001.5
2018-12-17T04:56:36.617Z,1001.48
2018-12-17T04:57:47.485Z,1001.49
2018-12-17T04:58:57.570Z,1001.58
2018-12-17T05:00:15.009Z,1001.53
2018-12-17T05:01:25.057Z,1001.61
2018-12-17T05:02:35.165Z,1001.62
2018-12-17T05:03:45.217Z,1001.66
2018-12-17T05:04:55.287Z,1001.66
2018-12-17T05:06:05.337Z,1001.61
2018-12-17T05:07:15.418Z,1001.6
2018-12-17T05:08:25.216Z,1001.65
2018-12-17T05:09:34.998Z,1001.65
2018-12-17T05:10:45.050Z,1001.65
2018-12-17T05:11:54.849Z,1001.67
2018-12-17T05:13:04.902Z,1001.71
2018-12-17T05:14:15.039Z,1001.69
2018-12-17T05:15:24.826Z,1001.7
2018-12-17T05:16:34.899Z,1001.75
2018-12-17T05:17:44.970Z,1001.85
2018-12-17T05:18:54.858Z,1001.83
2018-12-17T05:20:04.946Z,1001.83
2018-12-17T05:21:15.007Z,1001.8
2018-12-17T05:22:24.818Z,1001.83
2018-12-17T05:23:34.353Z,1001.8
2018-12-17T05:24:44.139Z,1001.8
2018-12-17T05:25:54.056Z,1001.88
2018-12-17T05:27:03.843Z,1001.89
2018-12-17T05:28:13.628Z,1001.94
2018-12-17T05:29:23.676Z,1001.92
2018-12-17T05:30:33.744Z,1001.88
2018-12-17T05:31:43.859Z,1001.87
2018-12-17T05:32:53.726Z,1001.92
2018-12-17T05:34:03.524Z,1001.91
2018-12-17T05:35:13.577Z,1001.92
2018-12-17T05:36:23.672Z,1001.89
2018-12-17T05:37:33.718Z,1001.89
2018-12-17T05:38:43.755Z,1001.82
2018-12-17T05:39:53.812Z,1001.88
2018-12-17T05:41:03.856Z,1001.9
2018-12-17T05:42:13.953Z,1001.96
2018-12-17T05:43:23.780Z,1001.98
2018-12-17T05:44:33.896Z,1001.96
2018-12-17T05:45:44.008Z,1001.96
2018-12-17T05:46:53.804Z,1001.96
2018-12-17T05:48:03.863Z,1001.96
2018-12-17T05:49:13.897Z,1001.99
2018-12-17T05:50:23.450Z,1002.01
2018-12-17T05:51:33.530Z,1002.06
2018-12-17T05:52:43.591Z,1002.05
2018-12-17T05:53:53.651Z,1002.03
2018-12-17T05:55:03.693Z,1002.06
2018-12-17T05:56:13.256Z,1002.07
2018-12-17T05:57:23.348Z,1002.04
2018-12-17T05:58:33.397Z,1002.05
2018-12-17T05:59:43.562Z,1002.08
2018-12-17T06:00:53.348Z,1002.08
2018-12-17T06:02:03.440Z,1002.15
2018-12-17T06:03:13.482Z,1002.12
2018-12-17T06:04:23.527Z,1002.11
2018-12-17T06:05:33.327Z,1002.11
2018-12-17T06:06:43.131Z,1002.07
2018-12-17T06:07:52.926Z,1002.12
2018-12-17T06:09:03.047Z,1002.09
2018-12-17T06:10:13.118Z,1002.13
2018-12-17T06:11:22.917Z,1002.16
2018-12-17T06:12:32.716Z,1002.19
2018-12-17T06:13:42.765Z,1002.15
2018-12-17T06:14:52.564Z,1002.22
2018-12-17T06:16:02.602Z,1002.27
2018-12-17T06:17:12.749Z,1002.26
2018-12-17T06:18:22.812Z,1002.29
2018-12-17T06:19:33.106Z,1002.29
2018-12-17T06:20:43.146Z,1002.34
2018-12-17T06:21:53.178Z,1002.32
2018-12-17T06:23:03.232Z,1002.31
2018-12-17T06:24:13.041Z,1002.29
2018-12-17T06:25:23.089Z,1002.27
2018-12-17T06:26:32.931Z,1002.23
2018-12-17T06:27:42.985Z,1002.24
2018-12-17T06:28:53.020Z,1002.3
2018-12-17T06:30:03.170Z,1002.28
2018-12-17T06:31:13.217Z,1002.2
2018-12-17T06:32:23.242Z,1002.24
2018-12-17T06:33:33.287Z,1002.2
2018-12-17T06:34:43.083Z,1002.19
2018-12-17T06:35:53.125Z,1002.24
2018-12-17T06:37:03.178Z,1002.24
2018-12-17T06:38:12.742Z,1002.24
2018-12-17T06:39:22.791Z,1002.3
2018-12-17T06:40:32.572Z,1002.28
2018-12-17T06:41:42.367Z,1002.31
2018-12-17T06:42:52.422Z,1002.27
2018-12-17T06:44:02.485Z,1002.3
2018-12-17T06:45:12.277Z,1002.34
2018-12-17T06:46:22.078Z,1002.38
2018-12-17T06:47:31.857Z,1002.35
2018-12-17T06:48:41.664Z,1002.4
2018-12-17T06:49:51.474Z,1002.48
2018-12-17T06:51:02.508Z,1002.53
2018-12-17T06:52:12.563Z,1002.57
2018-12-17T06:53:22.596Z,1002.56
2018-12-17T06:54:32.642Z,1002.55
2018-12-17T06:55:42.184Z,1002.57
2018-12-17T06:56:52.212Z,1002.66
2018-12-17T06:58:02.886Z,1002.69
2018-12-17T06:59:12.679Z,1002.73
2018-12-17T07:00:22.760Z,1002.77
2018-12-17T07:01:32.819Z,1002.7
2018-12-17T07:02:42.863Z,1002.75
2018-12-17T07:03:52.388Z,1002.83
2018-12-17T07:05:02.438Z,1002.8
2018-12-17T07:06:12.515Z,1002.8
2018-12-17T07:07:22.566Z,1002.77
2018-12-17T07:08:32.611Z,1002.77
2018-12-17T07:09:42.706Z,1002.83
2018-12-17T07:10:52.775Z,1002.85
2018-12-17T07:12:02.878Z,1002.9
2018-12-17T07:13:12.934Z,1002.85
2018-12-17T07:14:22.465Z,1002.9
2018-12-17T07:15:39.537Z,1002.9
2018-12-17T07:16:49.353Z,1003.01
2018-12-17T07:17:59.150Z,1003.03
2018-12-17T07:19:09.205Z,1003.05
2018-12-17T07:20:18.984Z,1003.02
2018-12-17T07:21:29.047Z,1003.03
2018-12-17T07:22:39.094Z,1003.11
2018-12-17T07:23:48.624Z,1003.2
2018-12-17T07:25:02.751Z,1003.15
2018-12-17T07:26:12.791Z,1003.14
2018-12-17T07:27:22.863Z,1003.19
2018-12-17T07:28:32.907Z,1003.16
2018-12-17T07:29:49.516Z,1003.21
2018-12-17T07:30:59.806Z,1003.23
2018-12-17T07:32:09.371Z,1003.24
2018-12-17T07:33:19.002Z,1003.25
2018-12-17T07:34:29.067Z,1003.23
2018-12-17T07:35:39.112Z,1003.22
2018-12-17T07:36:48.910Z,1003.22
2018-12-17T07:37:58.962Z,1003.26
2018-12-17T07:39:09.008Z,1003.25
2018-12-17T07:40:19.059Z,1003.24
2018-12-17T07:41:28.905Z,1003.28
2018-12-17T07:42:38.950Z,1003.35
2018-12-17T07:43:48.753Z,1003.33
2018-12-17T07:44:58.817Z,1003.35
2018-12-17T07:46:10.516Z,1003.33
2018-12-17T07:47:20.642Z,1003.33
2018-12-17T07:48:30.430Z,1003.34
2018-12-17T07:49:40.495Z,1003.37
2018-12-17T07:50:50.555Z,1003.42
2018-12-17T07:52:02.055Z,1003.45
2018-12-17T07:53:11.853Z,1003.4
2018-12-17T07:54:21.926Z,1003.42
2018-12-17T07:55:31.979Z,1003.44
2018-12-17T07:56:42.099Z,1003.47
2018-12-17T07:57:52.139Z,1003.54
2018-12-17T07:59:02.203Z,1003.55
2018-12-17T08:00:12.246Z,1003.55
2018-12-17T08:01:22.297Z,1003.58
2018-12-17T08:02:32.332Z,1003.61
2018-12-17T08:03:42.143Z,1003.59
2018-12-17T08:04:51.968Z,1003.59
2018-12-17T08:06:02.022Z,1003.62
2018-12-17T08:07:12.080Z,1003.7
2018-12-17T08:08:21.887Z,1003.69
2018-12-17T08:09:38.175Z,1003.7
2018-12-17T08:10:48.216Z,1003.77
2018-12-17T08:11:58.290Z,1003.86
2018-12-17T08:13:08.939Z,1003.88
2018-12-17T08:14:18.733Z,1003.89
2018-12-17T08:15:28.778Z,1003.88
2018-12-17T08:16:38.864Z,1003.92
2018-12-17T08:17:48.675Z,1003.96
2018-12-17T08:18:58.777Z,1004
2018-12-17T08:20:09.087Z,1003.99
2018-12-17T08:21:19.156Z,1004.02
2018-12-17T08:22:29.207Z,1004.01
2018-12-17T08:23:39.264Z,1004.01
2018-12-17T08:24:49.320Z,1004.06
2018-12-17T08:25:59.151Z,1004.04
2018-12-17T08:27:09.295Z,1004.06
2018-12-17T08:28:19.346Z,1004.11
2018-12-17T08:29:29.385Z,1004.14
2018-12-17T08:30:39.188Z,1004.18
2018-12-17T08:31:49.287Z,1004.16
2018-12-17T08:32:59.106Z,1004.22
2018-12-17T08:34:08.976Z,1004.26
2018-12-17T08:35:19.027Z,1004.22
2018-12-17T08:36:28.836Z,1004.23
2018-12-17T08:37:38.895Z,1004.27
2018-12-17T08:38:48.487Z,1004.31
2018-12-17T08:39:58.534Z,1004.29
2018-12-17T08:41:10.848Z,1004.24
2018-12-17T08:42:20.646Z,1004.29
2018-12-17T08:43:30.740Z,1004.26
2018-12-17T08:44:40.555Z,1004.27
2018-12-17T08:45:50.350Z,1004.19
2018-12-17T08:47:00.305Z,1004.2
2018-12-17T08:48:10.100Z,1004.29
2018-12-17T08:49:19.648Z,1004.25
2018-12-17T08:50:29.698Z,1004.36
2018-12-17T08:51:39.254Z,1004.39
2018-12-17T08:52:49.318Z,1004.45
2018-12-17T08:53:59.116Z,1004.47
2018-12-17T08:55:09.161Z,1004.53
2018-12-17T08:56:19.213Z,1004.51
2018-12-17T08:57:29.276Z,1004.53
2018-12-17T08:58:45.557Z,1004.53
2018-12-17T08:59:55.360Z,1004.59
2018-12-17T09:01:11.610Z,1004.59
2018-12-17T09:02:21.670Z,1004.62
2018-12-17T09:03:31.467Z,1004.63
2018-12-17T09:04:41.515Z,1004.63
2018-12-17T09:05:51.043Z,1004.52
2018-12-17T09:07:01.188Z,1004.54
2018-12-17T09:08:11.253Z,1004.59
2018-12-17T09:09:21.278Z,1004.61
2018-12-17T09:10:31.128Z,1004.58
2018-12-17T09:11:40.960Z,1004.6
2018-12-17T09:12:50.595Z,1004.65
2018-12-17T09:14:00.561Z,1004.68
2018-12-17T09:15:10.353Z,1004.62
2018-12-17T09:16:20.454Z,1004.55
2018-12-17T09:17:30.521Z,1004.59
2018-12-17T09:18:40.309Z,1004.55
2018-12-17T09:19:50.180Z,1004.6
2018-12-17T09:21:00.345Z,1004.57
2018-12-17T09:22:10.456Z,1004.6
2018-12-17T09:23:20.245Z,1004.59
2018-12-17T09:24:30.319Z,1004.61
2018-12-17T09:25:40.457Z,1004.64
2018-12-17T09:26:50.512Z,1004.61
2018-12-17T09:28:00.615Z,1004.61
2018-12-17T09:29:10.680Z,1004.6
2018-12-17T09:30:20.862Z,1004.61
2018-12-17T09:31:30.927Z,1004.59
2018-12-17T09:32:40.975Z,1004.62
2018-12-17T09:33:51.018Z,1004.66
2018-12-17T09:35:01.095Z,1004.63
2018-12-17T09:36:10.893Z,1004.65
2018-12-17T09:37:20.992Z,1004.66
2018-12-17T09:38:31.043Z,1004.69
2018-12-17T09:39:41.104Z,1004.71
2018-12-17T09:40:51.152Z,1004.66
2018-12-17T09:42:01.661Z,1004.61
2018-12-17T09:43:11.450Z,1004.63
2018-12-17T09:44:21.506Z,1004.68
2018-12-17T09:45:31.735Z,1004.62
2018-12-17T09:46:41.773Z,1004.63
2018-12-17T09:47:51.870Z,1004.59
2018-12-17T09:49:03.214Z,1004.58
2018-12-17T09:50:13.278Z,1004.53
2018-12-17T09:51:24.232Z,1004.55
2018-12-17T09:52:34.291Z,1004.55
2018-12-17T09:53:44.378Z,1004.55
2018-12-17T09:54:54.465Z,1004.49
2018-12-17T09:56:04.508Z,1004.45
2018-12-17T09:57:14.567Z,1004.51
2018-12-17T09:58:24.605Z,1004.52
2018-12-17T09:59:34.407Z,1004.5
2018-12-17T10:00:44.203Z,1004.45
2018-12-17T10:01:54.247Z,1004.44
2018-12-17T10:03:04.116Z,1004.43
2018-12-17T10:04:13.918Z,1004.49
2018-12-17T10:05:24.013Z,1004.44
2018-12-17T10:06:33.876Z,1004.48
2018-12-17T10:07:43.927Z,1004.5
2018-12-17T10:08:53.751Z,1004.47
2018-12-17T10:10:06.118Z,1004.48
2018-12-17T10:11:15.914Z,1004.51
2018-12-17T10:12:25.977Z,1004.48
2018-12-17T10:13:35.789Z,1004.5
2018-12-17T10:14:45.673Z,1004.53
2018-12-17T10:15:55.750Z,1004.46
2018-12-17T10:17:05.814Z,1004.48
2018-12-17T10:18:16.261Z,1004.5
2018-12-17T10:19:26.311Z,1004.5
2018-12-17T10:20:36.619Z,1004.51
2018-12-17T10:21:46.724Z,1004.56
2018-12-17T10:22:57.127Z,1004.59
2018-12-17T10:24:07.489Z,1004.55
2018-12-17T10:25:17.718Z,1004.55
2018-12-17T10:26:28.600Z,1004.52
2018-12-17T10:27:39.086Z,1004.51
2018-12-17T10:28:49.023Z,1004.5
2018-12-17T10:30:04.657Z,1004.51
2018-12-17T10:31:39.890Z,1004.5
2018-12-17T10:33:13.893Z,1004.52
2018-12-17T10:34:48.192Z,1004.52
2018-12-17T10:36:12.700Z,1004.55
2018-12-17T10:37:37.179Z,1004.55
2018-12-17T10:39:08.425Z,1004.49
2018-12-17T10:40:27.049Z,1004.49
2018-12-17T10:41:53.084Z,1004.55
2018-12-17T10:43:21.413Z,1004.5
2018-12-17T10:44:49.459Z,1004.54
2018-12-17T10:46:21.217Z,1004.57
2018-12-17T10:47:31.280Z,1004.57
2018-12-17T10:48:41.382Z,1004.58
2018-12-17T10:49:51.573Z,1004.6
2018-12-17T10:51:01.404Z,1004.57
2018-12-17T10:52:11.515Z,1004.53
2018-12-17T10:53:21.596Z,1004.58
2018-12-17T10:54:31.484Z,1004.53
2018-12-17T10:55:41.545Z,1004.53
2018-12-17T10:56:51.605Z,1004.54
2018-12-17T10:58:03.308Z,1004.54
2018-12-17T10:59:13.403Z,1004.54
2018-12-17T11:00:23.234Z,1004.52
2018-12-17T11:01:39.931Z,1004.53
2018-12-17T11:02:50.012Z,1004.58
2018-12-17T11:03:59.875Z,1004.58
2018-12-17T11:05:09.946Z,1004.59
2018-12-17T11:06:20.027Z,1004.57
2018-12-17T11:07:30.101Z,1004.54
2018-12-17T11:08:40.190Z,1004.57
2018-12-17T11:09:50.285Z,1004.56
2018-12-17T11:11:00.381Z,1004.54
2018-12-17T11:12:10.483Z,1004.58
2018-12-17T11:13:20.565Z,1004.59
2018-12-17T11:14:30.396Z,1004.61
2018-12-17T11:15:40.575Z,1004.61
2018-12-17T11:16:50.647Z,1004.66
2018-12-17T11:18:01.308Z,1004.67
2018-12-17T11:19:11.369Z,1004.69
2018-12-17T11:20:20.666Z,1004.64
2018-12-17T11:21:30.828Z,1004.65
2018-12-17T11:22:40.667Z,1004.66
2018-12-17T11:23:50.966Z,1004.69
2018-12-17T11:25:01.045Z,1004.71
2018-12-17T11:26:11.137Z,1004.68
2018-12-17T11:27:21.011Z,1004.65
2018-12-17T11:28:30.819Z,1004.67
2018-12-17T11:29:40.886Z,1004.68
2018-12-17T11:30:50.941Z,1004.65
2018-12-17T11:32:01.699Z,1004.67
2018-12-17T11:33:16.777Z,1004.7
2018-12-17T11:34:26.850Z,1004.68
2018-12-17T11:35:36.649Z,1004.67
2018-12-17T11:36:46.454Z,1004.68
2018-12-17T11:37:56.521Z,1004.62
2018-12-17T11:39:08.532Z,1004.61
2018-12-17T11:40:18.591Z,1004.66
2018-12-17T11:41:28.382Z,1004.62
2018-12-17T11:42:38.445Z,1004.61
2018-12-17T11:43:48.250Z,1004.63
2018-12-17T11:44:58.324Z,1004.64
2018-12-17T11:46:08.405Z,1004.68
2018-12-17T11:47:18.478Z,1004.66
2018-12-17T11:48:28.547Z,1004.62
2018-12-17T11:49:38.368Z,1004.62
2018-12-17T11:50:48.489Z,1004.66
2018-12-17T11:51:58.565Z,1004.71
2018-12-17T11:53:08.772Z,1004.74
2018-12-17T11:54:18.826Z,1004.73
2018-12-17T11:55:28.906Z,1004.71
2018-12-17T11:56:38.968Z,1004.72
2018-12-17T11:57:49.038Z,1004.75
2018-12-17T11:58:59.089Z,1004.78
2018-12-17T12:00:09.447Z,1004.79
2018-12-17T12:01:19.528Z,1004.84
2018-12-17T12:02:29.651Z,1004.83
2018-12-17T12:03:39.479Z,1004.83
2018-12-17T12:04:49.536Z,1004.83
2018-12-17T12:05:59.597Z,1004.83
2018-12-17T12:07:16.525Z,1004.84
2018-12-17T12:08:26.635Z,1004.83
2018-12-17T12:09:36.788Z,1004.84
2018-12-17T12:10:47.131Z,1004.79
2018-12-17T12:11:57.395Z,1004.82
2018-12-17T12:13:07.469Z,1004.85
2018-12-17T12:14:17.599Z,1004.8
2018-12-17T12:15:27.709Z,1004.84
2018-12-17T12:16:37.517Z,1004.81
2018-12-17T12:17:47.576Z,1004.83
2018-12-17T12:18:57.627Z,1004.82
2018-12-17T12:20:07.754Z,1004.78
2018-12-17T12:21:17.584Z,1004.78
2018-12-17T12:22:27.699Z,1004.78
2018-12-17T12:23:38.075Z,1004.81
2018-12-17T12:24:47.940Z,1004.84
2018-12-17T12:25:57.859Z,1004.84
2018-12-17T12:27:08.627Z,1004.92
2018-12-17T12:28:18.696Z,1004.87
2018-12-17T12:29:28.783Z,1004.85
2018-12-17T12:30:38.856Z,1004.88
2018-12-17T12:31:48.673Z,1004.88
2018-12-17T12:32:58.731Z,1004.9
2018-12-17T12:34:09.081Z,1004.88
2018-12-17T12:35:19.142Z,1004.92
2018-12-17T12:36:29.248Z,1004.9
2018-12-17T12:37:39.599Z,1004.94
2018-12-17T12:38:49.651Z,1004.9
2018-12-17T12:39:59.736Z,1004.94
2018-12-17T12:41:09.840Z,1004.95
2018-12-17T12:42:19.654Z,1004.95
2018-12-17T12:43:29.748Z,1005
2018-12-17T12:44:40.014Z,1005.01
2018-12-17T12:45:50.068Z,1005.06
2018-12-17T12:47:00.287Z,1005.11
2018-12-17T12:48:10.351Z,1005.09
2018-12-17T12:49:20.480Z,1005.13
2018-12-17T12:50:30.304Z,1005.11
2018-12-17T12:51:40.212Z,1005.13
2018-12-17T12:52:50.257Z,1005.13
2018-12-17T12:54:00.507Z,1005.15
2018-12-17T12:55:10.325Z,1005.13
2018-12-17T12:56:20.394Z,1005.15
2018-12-17T12:57:30.447Z,1005.17
2018-12-17T12:58:40.371Z,1005.13
2018-12-17T12:59:50.447Z,1005.12
2018-12-17T13:01:07.393Z,1005.18
2018-12-17T13:02:17.600Z,1005.17
2018-12-17T13:03:27.654Z,1005.18
2018-12-17T13:04:37.742Z,1005.24
2018-12-17T13:05:47.812Z,1005.21
2018-12-17T13:06:57.910Z,1005.24
2018-12-17T13:08:09.241Z,1005.3
2018-12-17T13:09:19.096Z,1005.28
2018-12-17T13:10:29.178Z,1005.31
2018-12-17T13:11:39.243Z,1005.3
2018-12-17T13:12:49.600Z,1005.33
2018-12-17T13:13:59.671Z,1005.38
2018-12-17T13:15:09.758Z,1005.33
2018-12-17T13:16:19.850Z,1005.32
2018-12-17T13:17:29.654Z,1005.32
2018-12-17T13:18:39.786Z,1005.32
2018-12-17T13:19:49.614Z,1005.36
2018-12-17T13:20:59.705Z,1005.39
2018-12-17T13:22:09.529Z,1005.4
2018-12-17T13:23:19.621Z,1005.36
2018-12-17T13:24:29.719Z,1005.35
2018-12-17T13:25:39.780Z,1005.39
2018-12-17T13:26:49.905Z,1005.44
2018-12-17T13:27:59.962Z,1005.48
2018-12-17T13:29:10.729Z,1005.5
2018-12-17T13:30:20.795Z,1005.51
2018-12-17T13:31:30.696Z,1005.55
2018-12-17T13:32:40.783Z,1005.59
2018-12-17T13:33:50.869Z,1005.61
2018-12-17T13:35:00.913Z,1005.61
2018-12-17T13:36:10.725Z,1005.67
2018-12-17T13:37:22.447Z,1005.68
2018-12-17T13:38:32.514Z,1005.67
2018-12-17T13:39:42.601Z,1005.73
2018-12-17T13:40:52.425Z,1005.73
2018-12-17T13:42:02.553Z,1005.72
2018-12-17T13:43:12.607Z,1005.72
2018-12-17T13:44:22.644Z,1005.75
2018-12-17T13:45:32.717Z,1005.8
2018-12-17T13:46:42.522Z,1005.82
2018-12-17T13:47:52.597Z,1005.85
2018-12-17T13:49:03.745Z,1005.91
2018-12-17T13:50:13.687Z,1005.93
2018-12-17T13:51:30.427Z,1005.92
2018-12-17T13:52:40.243Z,1005.97
2018-12-17T13:53:50.323Z,1005.92
2018-12-17T13:55:00.459Z,1005.97
2018-12-17T13:56:10.531Z,1005.98
2018-12-17T13:57:20.075Z,1006.03
2018-12-17T13:58:29.875Z,1006.03
2018-12-17T13:59:39.924Z,1006.04
2018-12-17T14:00:49.722Z,1006.08
2018-12-17T14:01:59.799Z,1006.1
2018-12-17T14:03:09.882Z,1006.17
2018-12-17T14:04:19.936Z,1006.22
2018-12-17T14:05:30.013Z,1006.19
2018-12-17T14:06:40.057Z,1006.23
2018-12-17T14:07:50.104Z,1006.23
2018-12-17T14:08:59.650Z,1006.24
2018-12-17T14:10:09.719Z,1006.29
2018-12-17T14:11:19.520Z,1006.31
2018-12-17T14:12:29.594Z,1006.34
2018-12-17T14:13:39.647Z,1006.33
2018-12-17T14:14:49.694Z,1006.31
2018-12-17T14:15:59.232Z,1006.33
2018-12-17T14:17:09.287Z,1006.34
2018-12-17T14:18:19.347Z,1006.38
2018-12-17T14:19:29.188Z,1006.37
2018-12-17T14:20:39.319Z,1006.32
2018-12-17T14:21:49.393Z,1006.4
2018-12-17T14:22:59.526Z,1006.4
2018-12-17T14:24:10.361Z,1006.38
2018-12-17T14:25:20.413Z,1006.41
2018-12-17T14:26:30.243Z,1006.39
2018-12-17T14:27:40.292Z,1006.37
2018-12-17T14:28:50.345Z,1006.36
2018-12-17T14:30:00.442Z,1006.34
2018-12-17T14:31:10.248Z,1006.34
2018-12-17T14:32:20.310Z,1006.3
2018-12-17T14:33:30.123Z,1006.29
2018-12-17T14:34:40.259Z,1006.33
2018-12-17T14:35:50.323Z,1006.3
2018-12-17T14:36:59.860Z,1006.32
2018-12-17T14:38:09.922Z,1006.33
2018-12-17T14:39:20.005Z,1006.32
2018-12-17T14:40:30.097Z,1006.36
2018-12-17T14:41:40.166Z,1006.35
2018-12-17T14:42:50.249Z,1006.37
2018-12-17T14:44:00.338Z,1006.34
2018-12-17T14:45:10.400Z,1006.33
2018-12-17T14:46:20.519Z,1006.4